createdAt,value
2022-10-14T00:00:10.677Z,14.03
2022-10-14T00:02:38.356Z,12.80
2022-10-14T00:05:06.681Z,13.30
2022-10-14T00:07:34.258Z,13.03
2022-10-14T00:10:01.972Z,11.90
2022-10-14T00:12:29.812Z,13.23
2022-10-14T00:14:57.588Z,13.10
2022-10-14T00:17:27.125Z,12.00
2022-10-14T00:19:54.689Z,11.80
2022-10-14T00:22:22.359Z,11.70
2022-10-14T00:24:49.875Z,12.00
2022-10-14T00:27:17.504Z,11.30
2022-10-14T00:29:45.064Z,12.10
2022-10-14T00:32:12.764Z,12.30
2022-10-14T00:34:41.748Z,11.67
2022-10-14T00:37:09.358Z,12.43
2022-10-14T00:39:37.053Z,12.40
2022-10-14T00:42:05.022Z,12.50
2022-10-14T00:45:02.053Z,12.50
2022-10-14T00:47:30.628Z,11.80
2022-10-14T00:50:01.077Z,12.43
2022-10-14T00:52:29.680Z,11.50
2022-10-14T00:55:01.550Z,10.63
2022-10-14T00:57:30.660Z,11.60
2022-10-14T01:00:04.543Z,11.57
2022-10-14T01:02:32.244Z,11.37
2022-10-14T01:05:02.475Z,11.30
2022-10-14T01:07:39.480Z,12.10
2022-10-14T01:10:14.450Z,11.60
2022-10-14T01:12:55.660Z,12.40
2022-10-14T01:15:30.972Z,11.50
2022-10-14T01:18:17.732Z,11.30
2022-10-14T01:20:58.128Z,10.53
2022-10-14T01:23:48.717Z,11.37
2022-10-14T01:26:38.612Z,11.07
2022-10-14T01:29:20.777Z,10.50
2022-10-14T01:31:59.208Z,10.70
2022-10-14T01:34:35.528Z,10.70
2022-10-14T01:37:09.744Z,10.93
2022-10-14T01:39:43.217Z,10.07
2022-10-14T01:42:14.205Z,10.30
2022-10-14T01:44:46.347Z,10.23
2022-10-14T01:47:19.389Z,11.03
2022-10-14T01:49:53.169Z,10.70
2022-10-14T01:52:27.485Z,10.53
2022-10-14T01:55:00.869Z,11.27
2022-10-14T01:57:33.525Z,10.70
2022-10-14T02:00:03.185Z,10.70
2022-10-14T02:02:32.111Z,9.57
2022-10-14T02:04:59.894Z,10.93
2022-10-14T02:07:33.367Z,10.50
2022-10-14T02:10:08.678Z,10.50
2022-10-14T02:12:46.505Z,10.00
2022-10-14T02:15:21.154Z,8.80
2022-10-14T02:17:57.201Z,10.47
2022-10-14T02:20:30.021Z,10.80
2022-10-14T02:23:01.761Z,11.03
2022-10-14T02:25:33.378Z,10.47
2022-10-14T02:28:03.345Z,10.10
2022-10-14T02:30:36.029Z,9.67
2022-10-14T02:33:06.748Z,10.97
2022-10-14T02:35:35.480Z,10.70
2022-10-14T02:38:03.648Z,10.17
2022-10-14T02:40:37.162Z,10.27
2022-10-14T02:43:07.847Z,9.53
2022-10-14T02:45:35.664Z,10.13
2022-10-14T02:48:03.244Z,11.17
2022-10-14T02:50:32.429Z,10.90
2022-10-14T02:53:00.281Z,11.50
2022-10-14T02:55:27.976Z,11.40
2022-10-14T02:57:55.552Z,10.60
2022-10-14T03:00:23.165Z,11.90
2022-10-14T03:02:50.943Z,11.97
2022-10-14T03:05:18.837Z,10.50
2022-10-14T03:07:47.755Z,9.67
2022-10-14T03:10:15.383Z,10.20
2022-10-14T03:12:43.046Z,10.53
2022-10-14T03:15:11.591Z,10.17
2022-10-14T03:17:39.786Z,10.03
2022-10-14T03:20:08.323Z,11.17
2022-10-14T03:22:35.956Z,10.20
2022-10-14T03:25:05.354Z,9.70
2022-10-14T03:27:32.850Z,11.40
2022-10-14T03:30:00.427Z,10.40
2022-10-14T03:32:28.091Z,10.20
2022-10-14T03:34:55.707Z,9.90
2022-10-14T03:37:23.540Z,11.13
2022-10-14T03:39:51.194Z,10.00
2022-10-14T03:42:20.489Z,10.67
2022-10-14T03:44:48.415Z,10.93
2022-10-14T03:47:16.040Z,11.00
2022-10-14T03:49:43.639Z,11.00
2022-10-14T03:52:11.263Z,11.40
2022-10-14T03:54:39.003Z,9.10
2022-10-14T03:57:06.707Z,11.03
2022-10-14T03:59:35.667Z,10.97
2022-10-14T04:02:03.258Z,11.23
2022-10-14T04:04:31.043Z,10.00
2022-10-14T04:06:58.695Z,10.30
2022-10-14T04:09:27.481Z,11.10
2022-10-14T04:11:57.784Z,11.30
2022-10-14T04:14:26.494Z,10.73
2022-10-14T04:16:55.518Z,10.30
2022-10-14T04:19:23.203Z,10.23
2022-10-14T04:21:50.910Z,10.00
2022-10-14T04:24:18.469Z,9.83
2022-10-14T04:26:46.048Z,10.73
2022-10-14T04:29:14.318Z,9.60
2022-10-14T04:31:42.114Z,10.33
2022-10-14T04:34:12.527Z,10.30
2022-10-14T04:36:40.497Z,9.90
2022-10-14T04:39:08.104Z,9.57
2022-10-14T04:41:35.765Z,10.27
2022-10-14T04:44:03.404Z,8.97
2022-10-14T04:46:31.434Z,9.30
2022-10-14T04:48:59.186Z,10.70
2022-10-14T04:51:28.165Z,9.50
2022-10-14T04:53:57.242Z,9.73
2022-10-14T04:56:24.815Z,10.43
2022-10-14T04:58:52.409Z,9.17
2022-10-14T05:01:20.594Z,9.67
2022-10-14T05:03:48.464Z,9.47
2022-10-14T05:06:16.034Z,8.77
2022-10-14T05:08:45.459Z,9.37
2022-10-14T05:11:13.458Z,9.00
2022-10-14T05:13:41.308Z,8.90
2022-10-14T05:16:09.300Z,9.83
2022-10-14T05:18:37.284Z,7.90
2022-10-14T05:21:05.163Z,9.20
2022-10-14T05:23:32.843Z,10.07
2022-10-14T05:26:01.829Z,8.97
2022-10-14T05:28:29.454Z,9.43
2022-10-14T05:30:57.032Z,10.10
2022-10-14T05:33:24.862Z,9.30
2022-10-14T05:35:59.943Z,9.37
2022-10-14T05:38:27.805Z,10.90
2022-10-14T05:40:56.388Z,9.63
2022-10-14T05:43:31.825Z,9.60
2022-10-14T05:46:00.860Z,9.10
2022-10-14T05:48:28.505Z,9.70
2022-10-14T05:50:56.106Z,9.90
2022-10-14T05:53:23.808Z,9.57
2022-10-14T05:55:51.498Z,9.40
2022-10-14T05:58:19.037Z,9.37
2022-10-14T06:00:47.891Z,9.53
2022-10-14T06:03:15.582Z,10.13
2022-10-14T06:05:43.193Z,10.03
2022-10-14T06:08:10.732Z,10.50
2022-10-14T06:10:38.448Z,9.50
2022-10-14T06:13:06.215Z,9.83
2022-10-14T06:15:36.063Z,9.83
2022-10-14T06:18:05.445Z,9.23
2022-10-14T06:20:33.184Z,9.50
2022-10-14T06:23:01.319Z,9.50
2022-10-14T06:25:29.287Z,9.80
2022-10-14T06:27:57.215Z,9.53
2022-10-14T06:30:24.916Z,9.47
2022-10-14T06:32:53.724Z,9.23
2022-10-14T06:35:22.760Z,9.10
2022-10-14T06:37:50.590Z,8.80
2022-10-14T06:40:18.421Z,9.80
2022-10-14T06:42:45.944Z,8.83
2022-10-14T06:45:16.105Z,8.83
2022-10-14T06:47:43.663Z,9.47
2022-10-14T06:50:11.237Z,9.17
2022-10-14T06:52:40.173Z,9.37
2022-10-14T06:55:08.908Z,9.97
2022-10-14T06:57:36.451Z,9.77
2022-10-14T07:00:04.582Z,10.03
2022-10-14T07:02:32.203Z,10.83
2022-10-14T07:04:59.808Z,9.80
2022-10-14T07:07:27.497Z,9.97
2022-10-14T07:09:56.351Z,10.00
2022-10-14T07:12:24.384Z,10.00
2022-10-14T07:14:52.402Z,9.20
2022-10-14T07:17:20.550Z,9.10
2022-10-14T07:19:48.203Z,8.03
2022-10-14T07:22:16.459Z,9.73
2022-10-14T07:24:44.090Z,9.87
2022-10-14T07:27:15.901Z,9.43
2022-10-14T07:29:43.911Z,9.00
2022-10-14T07:32:11.471Z,10.10
2022-10-14T07:34:39.146Z,10.00
2022-10-14T07:37:06.918Z,10.10
2022-10-14T07:39:34.609Z,10.73
2022-10-14T07:42:02.242Z,10.27
2022-10-14T07:44:31.197Z,10.33
2022-10-14T07:47:01.621Z,9.43
2022-10-14T07:49:29.243Z,10.53
2022-10-14T07:51:56.960Z,10.07
2022-10-14T07:54:29.277Z,11.10
2022-10-14T07:56:57.917Z,10.20
2022-10-14T07:59:26.450Z,9.77
2022-10-14T08:01:56.568Z,9.80
2022-10-14T08:04:25.977Z,11.20
2022-10-14T08:06:53.951Z,10.07
2022-10-14T08:09:21.792Z,9.73
2022-10-14T08:11:49.960Z,10.77
2022-10-14T08:14:17.899Z,10.40
2022-10-14T08:16:46.798Z,11.07
2022-10-14T08:19:16.036Z,10.70
2022-10-14T08:21:44.340Z,11.17
2022-10-14T08:24:12.505Z,11.03
2022-10-14T08:26:41.662Z,11.30
2022-10-14T08:29:12.107Z,10.90
2022-10-14T08:31:39.714Z,11.57
2022-10-14T08:34:07.638Z,11.20
2022-10-14T08:36:36.587Z,11.47
2022-10-14T08:39:04.651Z,11.20
2022-10-14T08:41:46.834Z,11.40
2022-10-14T08:44:22.880Z,10.93
2022-10-14T08:46:53.264Z,12.70
2022-10-14T08:49:26.443Z,12.43
2022-10-14T08:52:00.859Z,11.57
2022-10-14T08:54:37.576Z,9.70
2022-10-14T08:57:06.066Z,10.50
2022-10-14T08:59:38.119Z,10.07
2022-10-14T09:02:22.186Z,9.60
2022-10-14T09:04:50.308Z,11.27
2022-10-14T09:07:21.137Z,8.20
2022-10-14T09:09:51.536Z,9.70
2022-10-14T09:12:23.114Z,8.60
2022-10-14T09:15:00.248Z,9.00
2022-10-14T09:17:35.398Z,9.00
2022-10-14T09:20:16.705Z,9.83
2022-10-14T09:22:46.361Z,9.67
2022-10-14T09:25:16.520Z,9.50
2022-10-14T09:27:44.316Z,9.47
2022-10-14T09:30:16.349Z,9.50
2022-10-14T09:32:48.904Z,9.10
2022-10-14T09:35:23.677Z,8.13
2022-10-14T09:37:53.638Z,8.07
2022-10-14T09:40:29.671Z,7.83
2022-10-14T09:43:01.446Z,7.63
2022-10-14T09:45:31.041Z,8.23
2022-10-14T09:48:04.063Z,8.70
2022-10-14T09:50:36.272Z,9.23
2022-10-14T09:53:10.987Z,8.63
2022-10-14T09:55:49.621Z,8.87
2022-10-14T09:58:20.227Z,8.90
2022-10-14T10:00:48.538Z,9.00
2022-10-14T10:03:27.856Z,8.87
2022-10-14T10:06:05.201Z,8.83
2022-10-14T10:08:36.283Z,9.63
2022-10-14T10:11:08.237Z,9.40
2022-10-14T10:13:40.429Z,8.43
2022-10-14T10:16:19.589Z,8.27
2022-10-14T10:18:47.302Z,8.07
2022-10-14T10:21:18.301Z,7.77
2022-10-14T10:23:57.015Z,7.33
2022-10-14T10:26:31.757Z,7.13
2022-10-14T10:29:02.653Z,6.60
2022-10-14T10:31:57.368Z,7.63
2022-10-14T10:34:51.428Z,6.63
2022-10-14T10:37:26.416Z,6.33
2022-10-14T10:40:09.425Z,6.87
2022-10-14T10:42:51.400Z,5.87
2022-10-14T10:45:32.756Z,5.80
2022-10-14T10:48:11.296Z,5.87
2022-10-14T10:50:48.845Z,6.40
2022-10-14T10:53:37.838Z,6.17
2022-10-14T10:56:15.017Z,6.50
2022-10-14T10:58:50.324Z,5.90
2022-10-14T11:01:33.371Z,4.90
2022-10-14T11:04:18.276Z,4.90
2022-10-14T11:07:11.198Z,5.10
2022-10-14T11:10:01.619Z,5.00
2022-10-14T11:12:39.598Z,6.27
2022-10-14T11:15:25.765Z,5.87
2022-10-14T11:18:02.216Z,4.53
2022-10-14T11:20:44.778Z,5.83
2022-10-14T11:23:44.506Z,5.30
2022-10-14T11:26:21.786Z,4.80
2022-10-14T11:28:56.830Z,5.33
2022-10-14T11:31:36.112Z,5.27
2022-10-14T11:34:17.560Z,5.20
2022-10-14T11:36:56.007Z,4.83
2022-10-14T11:39:39.050Z,4.80
2022-10-14T11:42:26.062Z,5.30
2022-10-14T11:45:06.868Z,5.70
2022-10-14T11:47:36.781Z,4.50
2022-10-14T11:50:12.674Z,4.77
2022-10-14T11:52:45.420Z,3.90
2022-10-14T11:55:18.118Z,4.30
2022-10-14T11:57:50.138Z,4.37
2022-10-14T12:00:22.088Z,4.87
2022-10-14T12:02:55.467Z,4.67
2022-10-14T12:05:36.265Z,4.73
2022-10-14T12:08:15.026Z,4.80
2022-10-14T12:10:46.798Z,5.43
2022-10-14T12:13:17.225Z,4.83
2022-10-14T12:15:51.533Z,5.70
2022-10-14T12:18:20.281Z,4.47
2022-10-14T12:20:53.344Z,4.63
2022-10-14T12:23:33.765Z,3.70
2022-10-14T12:26:07.735Z,3.90
2022-10-14T12:28:37.500Z,3.80
2022-10-14T12:31:27.471Z,4.10
2022-10-14T12:34:32.318Z,4.10
2022-10-14T12:37:01.435Z,4.17
2022-10-14T12:39:34.662Z,4.30
2022-10-14T12:42:05.316Z,4.40
2022-10-14T12:44:45.479Z,4.60
2022-10-14T12:47:24.412Z,3.90
2022-10-14T12:49:56.055Z,4.03
2022-10-14T12:52:27.931Z,4.33
2022-10-14T12:54:56.867Z,4.90
2022-10-14T12:57:29.551Z,4.87
2022-10-14T13:00:00.289Z,4.23
2022-10-14T13:02:38.532Z,4.37
2022-10-14T13:05:10.419Z,4.43
2022-10-14T13:07:44.832Z,3.60
2022-10-14T13:10:46.941Z,4.57
2022-10-14T13:13:52.218Z,4.53
2022-10-14T13:17:12.016Z,4.60
2022-10-14T13:19:45.671Z,4.27
2022-10-14T13:22:36.675Z,4.77
2022-10-14T13:25:11.990Z,3.93
2022-10-14T13:27:48.817Z,3.90
2022-10-14T13:30:20.953Z,4.03
2022-10-14T13:32:54.484Z,3.90
2022-10-14T13:35:30.277Z,3.53
2022-10-14T13:38:01.134Z,3.80
2022-10-14T13:40:35.395Z,3.40
2022-10-14T13:43:08.349Z,3.80
2022-10-14T13:45:42.290Z,4.13
2022-10-14T13:48:14.875Z,3.70
2022-10-14T13:50:44.689Z,3.60
2022-10-14T13:53:20.640Z,3.60
2022-10-14T13:55:54.665Z,3.90
2022-10-14T13:58:24.322Z,3.93
2022-10-14T14:01:03.731Z,3.60
2022-10-14T14:03:35.167Z,3.93
2022-10-14T14:06:10.882Z,3.07
2022-10-14T14:08:48.476Z,3.43
2022-10-14T14:11:22.180Z,3.63
2022-10-14T14:14:00.205Z,4.20
2022-10-14T14:16:33.180Z,3.60
2022-10-14T14:19:08.901Z,3.47
2022-10-14T14:21:45.872Z,3.50
2022-10-14T14:24:24.857Z,3.97
2022-10-14T14:26:55.821Z,3.50
2022-10-14T14:29:27.340Z,3.57
2022-10-14T14:32:10.799Z,3.83
2022-10-14T14:34:40.467Z,4.03
2022-10-14T14:40:06.357Z,3.60
2022-10-14T14:42:36.413Z,3.40
2022-10-14T14:45:07.452Z,3.80
2022-10-14T14:47:35.298Z,3.53
2022-10-14T14:50:29.134Z,3.93
2022-10-14T14:52:53.516Z,4.50
2022-10-14T14:55:44.816Z,4.20
2022-10-14T14:58:25.320Z,4.33
2022-10-14T15:00:54.809Z,3.97
2022-10-14T15:03:24.060Z,4.43
2022-10-14T15:05:53.821Z,4.37
2022-10-14T15:08:26.172Z,4.40
2022-10-14T15:10:56.449Z,5.03
2022-10-14T15:13:31.059Z,4.03
2022-10-14T15:16:00.220Z,4.03
2022-10-14T15:18:29.074Z,5.20
2022-10-14T15:21:14.432Z,4.47
2022-10-14T15:23:46.887Z,4.60
2022-10-14T15:26:23.245Z,5.00
2022-10-14T15:29:05.170Z,4.93
2022-10-14T15:31:39.973Z,4.90
2022-10-14T15:34:17.163Z,5.00
2022-10-14T15:36:44.969Z,4.40
2022-10-14T15:39:14.761Z,5.00
2022-10-14T15:41:43.362Z,4.60
2022-10-14T15:44:10.946Z,5.27
2022-10-14T15:46:57.451Z,5.13
2022-10-14T15:49:29.427Z,4.80
2022-10-14T15:51:57.039Z,4.80
2022-10-14T15:54:27.204Z,4.97
2022-10-14T15:59:24.897Z,4.93
2022-10-14T16:01:53.316Z,5.07
2022-10-14T16:04:24.498Z,4.83
2022-10-14T16:06:54.726Z,4.70
2022-10-14T16:09:23.013Z,5.40
2022-10-14T16:11:57.219Z,5.70
2022-10-14T16:14:25.047Z,6.27
2022-10-14T16:16:52.618Z,5.80
2022-10-14T16:19:20.192Z,6.30
2022-10-14T16:21:49.701Z,5.80
2022-10-14T16:24:20.121Z,5.97
2022-10-14T16:26:49.158Z,6.93
2022-10-14T16:29:18.464Z,7.13
2022-10-14T16:31:49.158Z,7.13
2022-10-14T16:34:16.785Z,6.87
2022-10-14T16:36:44.431Z,7.93
2022-10-14T16:39:12.724Z,7.63
2022-10-14T16:41:40.651Z,7.77
2022-10-14T16:44:24.206Z,6.70
2022-10-14T16:47:11.470Z,7.50
2022-10-14T16:49:39.736Z,6.90
2022-10-14T16:52:07.910Z,6.50
2022-10-14T16:54:35.707Z,7.17
2022-10-14T16:57:03.302Z,8.17
2022-10-14T16:59:31.237Z,7.20
2022-10-14T17:02:01.185Z,6.50
2022-10-14T17:04:29.170Z,8.00
2022-10-14T17:06:57.032Z,7.53
2022-10-14T17:11:57.284Z,6.27
2022-10-14T17:14:24.828Z,7.50
2022-10-14T17:16:52.625Z,6.50
2022-10-14T17:19:21.670Z,7.90
2022-10-14T17:21:49.479Z,7.10
2022-10-14T17:24:17.473Z,6.73
2022-10-14T17:26:45.848Z,7.73
2022-10-14T17:29:13.438Z,7.30
2022-10-14T17:31:41.569Z,8.07
2022-10-14T17:34:09.713Z,8.20
2022-10-14T17:36:39.981Z,7.97
2022-10-14T17:39:07.614Z,8.80
2022-10-14T17:41:35.314Z,8.10
2022-10-14T17:44:03.815Z,7.70
2022-10-14T17:46:32.128Z,7.53
2022-10-14T17:49:01.542Z,6.30
2022-10-14T17:51:29.569Z,6.27
2022-10-14T17:54:00.158Z,7.03
2022-10-14T17:56:29.638Z,7.70
2022-10-14T17:58:58.805Z,7.33
2022-10-14T18:01:37.206Z,8.10
2022-10-14T18:04:11.586Z,6.90
2022-10-14T18:06:39.354Z,9.13
2022-10-14T18:09:10.376Z,7.37
2022-10-14T18:12:07.175Z,7.10
2022-10-14T18:14:29.595Z,6.60
2022-10-14T18:16:59.196Z,5.80
2022-10-14T18:19:27.011Z,6.03
2022-10-14T18:21:54.580Z,7.30
2022-10-14T18:24:23.561Z,6.90
2022-10-14T18:26:51.368Z,7.00
2022-10-14T18:29:18.998Z,6.97
2022-10-14T18:31:46.576Z,6.43
2022-10-14T18:34:14.298Z,6.30
2022-10-14T18:36:42.030Z,6.87
2022-10-14T18:39:12.590Z,7.00
2022-10-14T18:41:43.808Z,5.73
2022-10-14T18:44:11.517Z,6.60
2022-10-14T18:46:40.091Z,7.07
2022-10-14T18:49:09.157Z,7.50
2022-10-14T18:51:38.490Z,6.67
2022-10-14T18:54:08.172Z,7.00
2022-10-14T18:56:38.611Z,6.70
2022-10-14T18:59:09.528Z,8.60
2022-10-14T19:01:39.176Z,6.47
2022-10-14T19:04:12.900Z,7.07
2022-10-14T19:06:40.837Z,6.33
2022-10-14T19:09:12.227Z,6.53
2022-10-14T19:11:40.157Z,5.80
2022-10-14T19:14:09.740Z,7.10
2022-10-14T19:16:39.798Z,5.90
2022-10-14T19:19:11.680Z,5.77
2022-10-14T19:21:39.929Z,6.67
2022-10-14T19:24:08.703Z,6.07
2022-10-14T19:26:39.036Z,5.97
2022-10-14T19:29:11.539Z,5.80
2022-10-14T19:31:40.686Z,5.60
2022-10-14T19:34:11.101Z,5.67
2022-10-14T19:36:40.121Z,5.57
2022-10-14T19:39:09.760Z,5.77
2022-10-14T19:41:42.504Z,5.30
2022-10-14T19:44:12.609Z,5.20
2022-10-14T19:46:40.580Z,5.23
2022-10-14T19:49:08.371Z,5.33
2022-10-14T19:51:36.539Z,5.17
2022-10-14T19:54:04.127Z,5.27
2022-10-14T19:56:31.923Z,5.30
2022-10-14T19:59:01.646Z,5.60
2022-10-14T20:01:32.209Z,4.90
2022-10-14T20:04:01.140Z,4.20
2022-10-14T20:06:33.146Z,2.70
2022-10-14T20:09:00.823Z,1.90
2022-10-14T20:11:28.676Z,1.57
2022-10-14T20:13:56.285Z,1.40
2022-10-14T20:16:23.920Z,1.40
2022-10-14T20:18:52.889Z,1.73
2022-10-14T20:21:20.657Z,1.77
2022-10-14T20:23:48.241Z,1.80
2022-10-14T20:26:18.064Z,2.87
2022-10-14T20:28:45.800Z,3.23
2022-10-14T20:31:15.088Z,2.60
2022-10-14T20:33:43.284Z,2.87
2022-10-14T20:36:14.567Z,2.83
2022-10-14T20:38:43.261Z,2.40
2022-10-14T20:41:14.425Z,2.70
2022-10-14T20:43:43.043Z,2.80
2022-10-14T20:46:11.279Z,2.83
2022-10-14T20:48:39.176Z,2.47
2022-10-14T20:51:07.811Z,2.80
2022-10-14T20:53:37.030Z,2.60
2022-10-14T20:56:05.880Z,2.47
2022-10-14T20:58:33.773Z,2.03
2022-10-14T21:01:06.241Z,1.60
2022-10-14T21:03:33.839Z,1.57
2022-10-14T21:06:04.047Z,1.60
2022-10-14T21:08:31.659Z,1.80
2022-10-14T21:11:01.645Z,1.60
2022-10-14T21:13:29.540Z,1.70
2022-10-14T21:15:57.314Z,1.40
2022-10-14T21:18:25.031Z,1.90
2022-10-14T21:23:28.185Z,2.13
2022-10-14T21:25:57.163Z,1.77
2022-10-14T21:28:26.522Z,2.03
2022-10-14T21:30:54.060Z,2.20
2022-10-14T21:33:21.584Z,2.20
2022-10-14T21:35:49.089Z,2.20
2022-10-14T21:38:16.614Z,2.10
2022-10-14T21:40:44.491Z,2.10
2022-10-14T21:43:12.134Z,2.20
2022-10-14T21:45:41.036Z,2.70
2022-10-14T21:48:08.841Z,2.30
2022-10-14T21:50:36.383Z,3.07
2022-10-14T21:53:03.936Z,2.93
2022-10-14T21:55:31.463Z,3.60
2022-10-14T21:57:58.946Z,3.37
2022-10-14T22:00:26.483Z,3.57
2022-10-14T22:02:55.417Z,3.40
2022-10-14T22:05:23.430Z,3.20
2022-10-14T22:07:50.933Z,4.07
2022-10-14T22:10:36.521Z,3.43
2022-10-14T22:13:04.127Z,3.87
2022-10-14T22:15:31.719Z,3.80
2022-10-14T22:18:00.700Z,3.53
2022-10-14T22:20:28.199Z,3.73
2022-10-14T22:22:55.752Z,3.60
2022-10-14T22:25:23.328Z,3.90
2022-10-14T22:27:52.102Z,4.50
2022-10-14T22:30:19.992Z,4.70
2022-10-14T22:32:47.714Z,4.30
2022-10-14T22:35:17.609Z,4.07
2022-10-14T22:37:45.490Z,4.20
2022-10-14T22:40:13.477Z,4.77
2022-10-14T22:42:42.348Z,4.27
2022-10-14T22:45:11.574Z,4.30
2022-10-14T22:47:39.546Z,4.53
2022-10-14T22:50:08.164Z,4.60
2022-10-14T22:52:37.106Z,4.87
2022-10-14T22:55:05.131Z,5.00
2022-10-14T22:57:33.075Z,4.60
2022-10-14T23:00:00.860Z,4.10
2022-10-14T23:02:28.799Z,4.50
2022-10-14T23:04:56.953Z,3.93
2022-10-14T23:07:24.800Z,4.07
2022-10-14T23:09:53.700Z,3.80
2022-10-14T23:12:21.622Z,3.53
2022-10-14T23:14:51.193Z,3.30
2022-10-14T23:17:19.229Z,3.03
2022-10-14T23:19:47.750Z,3.23
2022-10-14T23:22:15.341Z,3.60
2022-10-14T23:24:42.980Z,2.80
2022-10-14T23:27:11.891Z,3.43
2022-10-14T23:29:39.570Z,2.83
2022-10-14T23:32:07.428Z,3.17
2022-10-14T23:34:35.219Z,2.90
2022-10-14T23:37:02.902Z,2.87
2022-10-14T23:39:30.682Z,2.50
2022-10-14T23:41:58.315Z,2.90
2022-10-14T23:44:27.220Z,3.10
2022-10-14T23:46:54.935Z,2.87
2022-10-14T23:49:25.892Z,2.97
2022-10-14T23:51:54.453Z,2.83
2022-10-14T23:54:22.154Z,2.60
2022-10-14T23:56:49.708Z,3.00
2022-10-14T23:59:17.453Z,2.50
